WZZ873 LICA-LBSF
Flight info
| Callsign | WZZ873 |
|---|---|
| Flight time | 1h 11m |
| Altitude | 370 |
| Route | LICA CRN6R CRN DCT FANJO DCT GEMVI L869 LATAN UL869 BEDEX DCT TUMBO DCT BITLA DCT MOREK MORE5H LBSF |
| Aircraft | A20N/M-VGDW/C |
Departure
| Time | 2026-04-26 19:01 |
|---|---|
| Airport | Lamezia Terme Sant'Eufemia International Airport (LICA) |
Arrival
| Time | 2026-04-26 20:12 |
|---|---|
| Airport | Sofia Airport (LBSF) |
| Time | Latitude | Longitude | Altitude | Speed | Heading |
|---|---|---|---|---|---|
| 2026-04-26 18:51 | 38.90859 | 16.24614 | 37 ft | 0 kts | 52° |
| 2026-04-26 18:58 | 38.90860 | 16.24617 | 39 ft | 2 kts | 63° |
| 2026-04-26 18:58 | 38.90837 | 16.24619 | 39 ft | 8 kts | 221° |
| 2026-04-26 18:59 | 38.90745 | 16.24579 | 39 ft | 20 kts | 211° |
| 2026-04-26 18:59 | 38.90747 | 16.24379 | 37 ft | 29 kts | 277° |
| 2026-04-26 18:59 | 38.90781 | 16.24082 | 35 ft | 38 kts | 278° |
| 2026-04-26 18:59 | 38.90825 | 16.23707 | 32 ft | 45 kts | 278° |
| 2026-04-26 19:00 | 38.90870 | 16.23315 | 30 ft | 44 kts | 277° |
| 2026-04-26 19:00 | 38.90807 | 16.22966 | 28 ft | 40 kts | 229° |
| 2026-04-26 19:00 | 38.90686 | 16.23015 | 29 ft | 32 kts | 99° |
| 2026-04-26 19:00 | 38.90620 | 16.23568 | 33 ft | 93 kts | 98° |
| 2026-04-26 19:01 | 38.90493 | 16.24643 | 39 ft | 150 kts | 98° |
| 2026-04-26 19:01 | 38.90313 | 16.26142 | 164 ft | 180 kts | 101° |
| 2026-04-26 19:01 | 38.90098 | 16.27695 | 738 ft | 172 kts | 99° |
| 2026-04-26 19:01 | 38.89916 | 16.29190 | 1438 ft | 170 kts | 99° |
| 2026-04-26 19:02 | 38.89729 | 16.30796 | 1808 ft | 195 kts | 98° |
| 2026-04-26 19:02 | 38.89519 | 16.32608 | 2034 ft | 223 kts | 98° |
| 2026-04-26 19:02 | 38.89278 | 16.34704 | 2326 ft | 249 kts | 97° |
| 2026-04-26 19:02 | 38.89103 | 16.36216 | 2634 ft | 258 kts | 98° |
| 2026-04-26 19:03 | 38.88821 | 16.39315 | 3551 ft | 268 kts | 89° |
| 2026-04-26 19:03 | 38.89137 | 16.41654 | 4443 ft | 264 kts | 67° |
| 2026-04-26 19:03 | 38.89975 | 16.43741 | 5257 ft | 264 kts | 58° |
| 2026-04-26 19:03 | 38.90984 | 16.45727 | 6003 ft | 267 kts | 54° |
| 2026-04-26 19:04 | 38.92050 | 16.47708 | 6793 ft | 270 kts | 53° |
| 2026-04-26 19:04 | 38.93131 | 16.49690 | 7567 ft | 273 kts | 54° |
| 2026-04-26 19:04 | 38.94233 | 16.51703 | 8316 ft | 278 kts | 53° |
| 2026-04-26 19:04 | 38.95351 | 16.53745 | 9111 ft | 281 kts | 53° |
| 2026-04-26 19:05 | 38.97633 | 16.57917 | 10499 ft | 294 kts | 53° |
| 2026-04-26 19:05 | 38.98847 | 16.60136 | 10792 ft | 314 kts | 54° |
| 2026-04-26 19:05 | 39.00140 | 16.62501 | 11130 ft | 332 kts | 54° |
| 2026-04-26 19:06 | 39.01486 | 16.64967 | 11675 ft | 340 kts | 54° |
| 2026-04-26 19:06 | 39.02857 | 16.67482 | 12336 ft | 347 kts | 54° |
| 2026-04-26 19:06 | 39.04233 | 16.70008 | 13021 ft | 351 kts | 54° |
| 2026-04-26 19:06 | 39.05643 | 16.72598 | 13697 ft | 356 kts | 54° |
| 2026-04-26 19:07 | 39.07074 | 16.75229 | 14317 ft | 361 kts | 54° |
| 2026-04-26 19:07 | 39.08521 | 16.77891 | 14933 ft | 365 kts | 54° |
| 2026-04-26 19:07 | 39.09981 | 16.80581 | 15581 ft | 368 kts | 54° |
| 2026-04-26 19:07 | 39.11454 | 16.83295 | 16239 ft | 371 kts | 54° |
| 2026-04-26 19:08 | 39.12939 | 16.86034 | 16887 ft | 374 kts | 54° |
| 2026-04-26 19:08 | 39.14434 | 16.88793 | 17477 ft | 377 kts | 54° |
| 2026-04-26 19:08 | 39.15940 | 16.91575 | 18105 ft | 380 kts | 54° |
| 2026-04-26 19:08 | 39.17461 | 16.94389 | 18682 ft | 384 kts | 54° |
| 2026-04-26 19:09 | 39.18992 | 16.97222 | 19212 ft | 387 kts | 54° |
| 2026-04-26 19:09 | 39.20537 | 17.00083 | 19740 ft | 390 kts | 54° |
| 2026-04-26 19:09 | 39.22092 | 17.02967 | 20265 ft | 394 kts | 54° |
| 2026-04-26 19:09 | 39.23662 | 17.05880 | 20769 ft | 397 kts | 54° |
| 2026-04-26 19:10 | 39.25224 | 17.08782 | 21261 ft | 401 kts | 54° |
| 2026-04-26 19:10 | 39.26818 | 17.11745 | 21794 ft | 403 kts | 54° |
| 2026-04-26 19:10 | 39.28421 | 17.14728 | 22322 ft | 406 kts | 54° |
| 2026-04-26 19:10 | 39.30039 | 17.17740 | 22851 ft | 409 kts | 54° |
| 2026-04-26 19:11 | 39.31665 | 17.20772 | 23363 ft | 412 kts | 54° |
| 2026-04-26 19:11 | 39.33299 | 17.23821 | 23830 ft | 415 kts | 54° |
| 2026-04-26 19:11 | 39.34948 | 17.26901 | 24243 ft | 418 kts | 54° |
| 2026-04-26 19:11 | 39.36605 | 17.30000 | 24654 ft | 420 kts | 54° |
| 2026-04-26 19:12 | 39.38267 | 17.33111 | 25051 ft | 422 kts | 54° |
| 2026-04-26 19:12 | 39.39941 | 17.36247 | 25450 ft | 424 kts | 54° |
| 2026-04-26 19:12 | 39.41622 | 17.39398 | 25845 ft | 426 kts | 54° |
| 2026-04-26 19:12 | 39.43309 | 17.42566 | 26212 ft | 429 kts | 54° |
| 2026-04-26 19:13 | 39.45005 | 17.45752 | 26573 ft | 431 kts | 54° |
| 2026-04-26 19:13 | 39.46711 | 17.48962 | 26945 ft | 433 kts | 54° |
| 2026-04-26 19:13 | 39.48421 | 17.52181 | 27307 ft | 435 kts | 54° |
| 2026-04-26 19:13 | 39.50141 | 17.55422 | 27676 ft | 437 kts | 54° |
| 2026-04-26 19:14 | 39.51867 | 17.58679 | 28022 ft | 439 kts | 54° |
| 2026-04-26 19:14 | 39.53595 | 17.61943 | 28364 ft | 441 kts | 54° |
| 2026-04-26 19:14 | 39.55335 | 17.65233 | 28707 ft | 443 kts | 54° |
| 2026-04-26 19:14 | 39.56491 | 17.67420 | 28950 ft | 444 kts | 54° |
| 2026-04-26 19:15 | 39.58832 | 17.71854 | 29389 ft | 447 kts | 54° |
| 2026-04-26 19:15 | 39.60567 | 17.75144 | 29698 ft | 449 kts | 54° |
| 2026-04-26 19:15 | 39.62336 | 17.78501 | 29976 ft | 452 kts | 54° |
| 2026-04-26 19:15 | 39.64114 | 17.81880 | 30266 ft | 453 kts | 54° |
| 2026-04-26 19:16 | 39.65892 | 17.85264 | 30568 ft | 454 kts | 54° |
| 2026-04-26 19:16 | 39.66447 | 17.86321 | 30673 ft | 453 kts | 54° |
| 2026-04-26 19:16 | 39.68025 | 17.89328 | 31021 ft | 452 kts | 54° |
| 2026-04-26 19:17 | 39.69793 | 17.92700 | 31382 ft | 451 kts | 54° |
| 2026-04-26 19:17 | 39.71553 | 17.96059 | 31710 ft | 450 kts | 54° |
| 2026-04-26 19:17 | 39.73311 | 17.99419 | 32091 ft | 448 kts | 54° |
| 2026-04-26 19:17 | 39.75059 | 18.02763 | 32447 ft | 446 kts | 54° |
| 2026-04-26 19:18 | 39.76802 | 18.06101 | 32758 ft | 446 kts | 54° |
| 2026-04-26 19:18 | 39.78541 | 18.09435 | 33053 ft | 445 kts | 54° |
| 2026-04-26 19:18 | 39.80279 | 18.12771 | 33351 ft | 444 kts | 54° |
| 2026-04-26 19:18 | 39.81990 | 18.16057 | 33637 ft | 444 kts | 54° |
| 2026-04-26 19:19 | 39.83718 | 18.19381 | 33920 ft | 443 kts | 54° |
| 2026-04-26 19:19 | 39.85443 | 18.22702 | 34187 ft | 442 kts | 54° |
| 2026-04-26 19:19 | 39.87165 | 18.26021 | 34409 ft | 442 kts | 54° |
| 2026-04-26 19:19 | 39.88885 | 18.29338 | 34599 ft | 442 kts | 54° |
| 2026-04-26 19:20 | 39.90605 | 18.32659 | 34797 ft | 442 kts | 54° |
| 2026-04-26 19:20 | 39.91742 | 18.34858 | 34925 ft | 442 kts | 54° |
| 2026-04-26 19:20 | 39.94039 | 18.39302 | 35170 ft | 442 kts | 54° |
| 2026-04-26 19:20 | 39.95755 | 18.42626 | 35344 ft | 442 kts | 54° |
| 2026-04-26 19:21 | 39.97471 | 18.45953 | 35467 ft | 444 kts | 54° |
| 2026-04-26 19:21 | 40.00928 | 18.52668 | 35744 ft | 445 kts | 54° |
| 2026-04-26 19:21 | 40.02647 | 18.56014 | 35954 ft | 444 kts | 54° |
| 2026-04-26 19:22 | 40.04367 | 18.59364 | 36139 ft | 444 kts | 54° |
| 2026-04-26 19:22 | 40.06063 | 18.62670 | 36317 ft | 443 kts | 54° |
| 2026-04-26 19:22 | 40.07775 | 18.66013 | 36479 ft | 443 kts | 54° |
| 2026-04-26 19:22 | 40.09485 | 18.69353 | 36608 ft | 443 kts | 54° |
| 2026-04-26 19:23 | 40.11195 | 18.72699 | 36749 ft | 443 kts | 54° |
| 2026-04-26 19:23 | 40.12906 | 18.76049 | 36889 ft | 443 kts | 54° |
| 2026-04-26 19:23 | 40.14618 | 18.79403 | 37024 ft | 443 kts | 54° |
| 2026-04-26 19:24 | 40.18052 | 18.86145 | 37110 ft | 446 kts | 54° |
| 2026-04-26 19:24 | 40.23168 | 18.96216 | 37097 ft | 444 kts | 54° |
| 2026-04-26 19:25 | 40.25449 | 19.00718 | 37108 ft | 443 kts | 54° |
| 2026-04-26 19:25 | 40.29981 | 19.09680 | 37099 ft | 443 kts | 54° |
| 2026-04-26 19:26 | 40.33384 | 19.16425 | 37101 ft | 444 kts | 55° |
| 2026-04-26 19:26 | 40.36791 | 19.23194 | 37101 ft | 444 kts | 55° |
| 2026-04-26 19:27 | 40.40189 | 19.29959 | 37089 ft | 444 kts | 55° |
| 2026-04-26 19:27 | 40.43585 | 19.36736 | 37093 ft | 444 kts | 55° |
| 2026-04-26 19:28 | 40.46974 | 19.43512 | 37084 ft | 444 kts | 55° |
| 2026-04-26 19:28 | 40.50342 | 19.50260 | 37087 ft | 445 kts | 55° |
| 2026-04-26 19:29 | 40.53733 | 19.57071 | 37088 ft | 445 kts | 55° |
| 2026-04-26 19:29 | 40.57121 | 19.63892 | 37095 ft | 445 kts | 55° |
| 2026-04-26 19:30 | 40.60504 | 19.70716 | 37090 ft | 445 kts | 55° |
| 2026-04-26 19:30 | 40.62745 | 19.75245 | 37097 ft | 445 kts | 55° |
| 2026-04-26 19:31 | 40.67245 | 19.84358 | 37104 ft | 446 kts | 55° |
| 2026-04-26 19:31 | 40.70627 | 19.91227 | 37094 ft | 447 kts | 55° |
| 2026-04-26 19:32 | 40.73437 | 19.96943 | 37093 ft | 447 kts | 55° |
| 2026-04-26 19:32 | 40.76817 | 20.03835 | 37093 ft | 447 kts | 55° |
| 2026-04-26 19:33 | 40.80198 | 20.10743 | 37094 ft | 447 kts | 55° |
| 2026-04-26 19:33 | 40.83565 | 20.17640 | 37102 ft | 447 kts | 55° |
| 2026-04-26 19:34 | 40.86933 | 20.24553 | 37103 ft | 448 kts | 55° |
| 2026-04-26 19:34 | 40.90280 | 20.31439 | 37101 ft | 447 kts | 55° |
| 2026-04-26 19:35 | 40.93637 | 20.38360 | 37102 ft | 447 kts | 55° |
| 2026-04-26 19:35 | 40.96986 | 20.45282 | 37105 ft | 447 kts | 55° |
| 2026-04-26 19:36 | 40.99803 | 20.51114 | 37106 ft | 448 kts | 55° |
| 2026-04-26 19:36 | 41.03703 | 20.59207 | 37106 ft | 448 kts | 55° |
| 2026-04-26 19:37 | 41.07054 | 20.66179 | 37102 ft | 449 kts | 55° |
| 2026-04-26 19:37 | 41.10402 | 20.73161 | 37102 ft | 449 kts | 56° |
| 2026-04-26 19:38 | 41.13750 | 20.80159 | 37103 ft | 449 kts | 55° |
| 2026-04-26 19:38 | 41.17101 | 20.87178 | 37101 ft | 450 kts | 55° |
| 2026-04-26 19:39 | 41.20421 | 20.94150 | 37101 ft | 450 kts | 56° |
| 2026-04-26 19:39 | 41.23759 | 21.01175 | 37100 ft | 450 kts | 56° |
| 2026-04-26 19:40 | 41.27093 | 21.08206 | 37101 ft | 449 kts | 55° |
| 2026-04-26 19:40 | 41.30429 | 21.15259 | 37094 ft | 451 kts | 55° |
| 2026-04-26 19:41 | 41.33763 | 21.22323 | 37090 ft | 451 kts | 55° |
| 2026-04-26 19:41 | 41.36532 | 21.28204 | 37085 ft | 451 kts | 55° |
| 2026-04-26 19:42 | 41.40427 | 21.36494 | 37099 ft | 451 kts | 55° |
| 2026-04-26 19:42 | 41.43749 | 21.43584 | 37087 ft | 451 kts | 55° |
| 2026-04-26 19:43 | 41.47071 | 21.50690 | 37091 ft | 451 kts | 56° |
| 2026-04-26 19:43 | 41.50391 | 21.57808 | 37086 ft | 451 kts | 56° |
| 2026-04-26 19:44 | 41.53701 | 21.64921 | 37083 ft | 452 kts | 56° |
| 2026-04-26 19:44 | 41.56995 | 21.72016 | 37090 ft | 452 kts | 56° |
| 2026-04-26 19:45 | 41.60304 | 21.79161 | 37085 ft | 452 kts | 56° |
| 2026-04-26 19:45 | 41.63604 | 21.86302 | 37073 ft | 451 kts | 56° |
| 2026-04-26 19:46 | 41.66908 | 21.93470 | 37070 ft | 451 kts | 56° |
| 2026-04-26 19:46 | 41.70182 | 22.00588 | 37062 ft | 451 kts | 56° |
| 2026-04-26 19:47 | 41.72929 | 22.06576 | 37058 ft | 451 kts | 56° |
| 2026-04-26 19:47 | 41.76745 | 22.14912 | 37067 ft | 450 kts | 56° |
| 2026-04-26 19:48 | 41.80010 | 22.22062 | 37068 ft | 450 kts | 56° |
| 2026-04-26 19:48 | 41.83262 | 22.29200 | 37073 ft | 450 kts | 56° |
| 2026-04-26 19:49 | 41.86661 | 22.36232 | 37071 ft | 447 kts | 51° |
| 2026-04-26 19:49 | 41.88529 | 22.39547 | 36689 ft | 444 kts | 50° |
| 2026-04-26 19:49 | 41.90412 | 22.42812 | 36228 ft | 441 kts | 50° |
| 2026-04-26 19:50 | 41.92296 | 22.46062 | 35720 ft | 440 kts | 49° |
| 2026-04-26 19:50 | 41.94177 | 22.49306 | 35210 ft | 439 kts | 50° |
| 2026-04-26 19:50 | 41.96050 | 22.52539 | 34752 ft | 438 kts | 49° |
| 2026-04-26 19:50 | 41.97915 | 22.55763 | 34303 ft | 435 kts | 50° |
| 2026-04-26 19:51 | 41.99764 | 22.58963 | 33831 ft | 431 kts | 50° |
| 2026-04-26 19:51 | 42.01571 | 22.62094 | 33177 ft | 427 kts | 50° |
| 2026-04-26 19:51 | 42.03380 | 22.65230 | 32518 ft | 423 kts | 50° |
| 2026-04-26 19:51 | 42.05180 | 22.68356 | 31862 ft | 419 kts | 49° |
| 2026-04-26 19:52 | 42.06952 | 22.71434 | 31300 ft | 413 kts | 50° |
| 2026-04-26 19:52 | 42.08704 | 22.74482 | 30687 ft | 410 kts | 50° |
| 2026-04-26 19:52 | 42.10438 | 22.77502 | 30142 ft | 404 kts | 51° |
| 2026-04-26 19:52 | 42.12146 | 22.80478 | 29562 ft | 398 kts | 51° |
| 2026-04-26 19:53 | 42.13830 | 22.83415 | 28936 ft | 394 kts | 51° |
| 2026-04-26 19:53 | 42.15499 | 22.86328 | 28274 ft | 390 kts | 51° |
| 2026-04-26 19:53 | 42.17149 | 22.89212 | 27654 ft | 387 kts | 51° |
| 2026-04-26 19:53 | 42.18786 | 22.92075 | 27053 ft | 383 kts | 51° |
| 2026-04-26 19:54 | 42.20402 | 22.94907 | 26462 ft | 380 kts | 51° |
| 2026-04-26 19:54 | 42.22011 | 22.97726 | 25886 ft | 377 kts | 51° |
| 2026-04-26 19:54 | 42.23606 | 23.00524 | 25370 ft | 374 kts | 51° |
| 2026-04-26 19:54 | 42.25166 | 23.03264 | 24893 ft | 371 kts | 51° |
| 2026-04-26 19:55 | 42.26732 | 23.06018 | 24409 ft | 368 kts | 51° |
| 2026-04-26 19:55 | 42.28283 | 23.08747 | 23926 ft | 365 kts | 51° |
| 2026-04-26 19:55 | 42.29827 | 23.11464 | 23411 ft | 363 kts | 51° |
| 2026-04-26 19:55 | 42.31351 | 23.14151 | 22904 ft | 358 kts | 51° |
| 2026-04-26 19:56 | 42.32858 | 23.16810 | 22323 ft | 354 kts | 51° |
| 2026-04-26 19:56 | 42.34349 | 23.19444 | 21726 ft | 351 kts | 51° |
| 2026-04-26 19:56 | 42.35825 | 23.22052 | 21135 ft | 348 kts | 51° |
| 2026-04-26 19:56 | 42.37268 | 23.24623 | 20598 ft | 345 kts | 52° |
| 2026-04-26 19:57 | 42.38484 | 23.27405 | 20052 ft | 344 kts | 64° |
| 2026-04-26 19:57 | 42.39310 | 23.30447 | 19512 ft | 343 kts | 70° |
| 2026-04-26 19:57 | 42.40015 | 23.33510 | 18961 ft | 340 kts | 70° |
| 2026-04-26 19:57 | 42.40696 | 23.36564 | 18429 ft | 338 kts | 70° |
| 2026-04-26 19:58 | 42.41364 | 23.39599 | 17826 ft | 335 kts | 70° |
| 2026-04-26 19:58 | 42.42022 | 23.42617 | 17211 ft | 333 kts | 70° |
| 2026-04-26 19:58 | 42.42674 | 23.45609 | 16644 ft | 330 kts | 70° |
| 2026-04-26 19:58 | 42.43320 | 23.48579 | 16070 ft | 327 kts | 70° |
| 2026-04-26 19:59 | 42.43946 | 23.51495 | 15497 ft | 325 kts | 70° |
| 2026-04-26 19:59 | 42.44570 | 23.54429 | 14933 ft | 323 kts | 71° |
| 2026-04-26 19:59 | 42.45182 | 23.57344 | 14402 ft | 320 kts | 70° |
| 2026-04-26 19:59 | 42.45780 | 23.60249 | 13845 ft | 319 kts | 70° |
| 2026-04-26 20:00 | 42.46370 | 23.63138 | 13253 ft | 317 kts | 70° |
| 2026-04-26 20:00 | 42.46956 | 23.65998 | 12686 ft | 314 kts | 71° |
| 2026-04-26 20:00 | 42.47542 | 23.68833 | 12142 ft | 311 kts | 71° |
| 2026-04-26 20:00 | 42.48123 | 23.71610 | 11598 ft | 309 kts | 71° |
| 2026-04-26 20:01 | 42.48710 | 23.74393 | 11076 ft | 306 kts | 71° |
| 2026-04-26 20:01 | 42.49288 | 23.77117 | 10816 ft | 294 kts | 71° |
| 2026-04-26 20:01 | 42.49833 | 23.79724 | 10625 ft | 281 kts | 70° |
| 2026-04-26 20:01 | 42.50345 | 23.82238 | 10341 ft | 273 kts | 70° |
| 2026-04-26 20:02 | 42.50845 | 23.84705 | 10041 ft | 269 kts | 71° |
| 2026-04-26 20:02 | 42.51341 | 23.87155 | 9961 ft | 269 kts | 71° |
| 2026-04-26 20:02 | 42.51839 | 23.89605 | 9953 ft | 270 kts | 70° |
| 2026-04-26 20:02 | 42.52168 | 23.91232 | 9955 ft | 270 kts | 70° |
| 2026-04-26 20:03 | 42.52828 | 23.94487 | 9952 ft | 270 kts | 70° |
| 2026-04-26 20:03 | 42.53324 | 23.96935 | 9938 ft | 270 kts | 71° |
| 2026-04-26 20:03 | 42.53823 | 23.99391 | 9937 ft | 269 kts | 70° |
| 2026-04-26 20:03 | 42.54421 | 24.01780 | 9916 ft | 264 kts | 56° |
| 2026-04-26 20:04 | 42.55609 | 24.03605 | 9533 ft | 256 kts | 28° |
| 2026-04-26 20:04 | 42.57237 | 24.04376 | 9159 ft | 246 kts | 359° |
| 2026-04-26 20:04 | 42.58874 | 24.03932 | 8787 ft | 239 kts | 330° |
| 2026-04-26 20:04 | 42.60123 | 24.02482 | 8486 ft | 236 kts | 310° |
| 2026-04-26 20:05 | 42.61086 | 24.00706 | 8269 ft | 232 kts | 306° |
| 2026-04-26 20:05 | 42.61986 | 23.98907 | 7959 ft | 230 kts | 306° |
| 2026-04-26 20:05 | 42.62876 | 23.97115 | 7651 ft | 227 kts | 306° |
| 2026-04-26 20:05 | 42.63713 | 23.95290 | 7221 ft | 231 kts | 298° |
| 2026-04-26 20:06 | 42.64300 | 23.93221 | 6604 ft | 244 kts | 290° |
| 2026-04-26 20:06 | 42.64788 | 23.90973 | 6056 ft | 251 kts | 289° |
| 2026-04-26 20:06 | 42.65249 | 23.88666 | 5693 ft | 253 kts | 287° |
| 2026-04-26 20:06 | 42.65699 | 23.86346 | 5701 ft | 255 kts | 287° |
| 2026-04-26 20:07 | 42.66154 | 23.83998 | 5917 ft | 258 kts | 287° |
| 2026-04-26 20:07 | 42.66607 | 23.81635 | 5963 ft | 259 kts | 287° |
| 2026-04-26 20:07 | 42.67092 | 23.79280 | 5961 ft | 258 kts | 290° |
| 2026-04-26 20:07 | 42.67524 | 23.76918 | 5964 ft | 259 kts | 281° |
| 2026-04-26 20:08 | 42.67711 | 23.74476 | 5973 ft | 260 kts | 277° |
| 2026-04-26 20:08 | 42.67841 | 23.72018 | 5870 ft | 261 kts | 277° |
| 2026-04-26 20:08 | 42.67988 | 23.69562 | 5549 ft | 261 kts | 278° |
| 2026-04-26 20:08 | 42.68141 | 23.67134 | 5154 ft | 261 kts | 277° |
| 2026-04-26 20:09 | 42.68287 | 23.64679 | 4750 ft | 261 kts | 277° |
| 2026-04-26 20:09 | 42.68431 | 23.62234 | 4375 ft | 258 kts | 277° |
| 2026-04-26 20:09 | 42.68574 | 23.59820 | 4042 ft | 254 kts | 276° |
| 2026-04-26 20:09 | 42.68714 | 23.57456 | 3704 ft | 246 kts | 276° |
| 2026-04-26 20:10 | 42.68848 | 23.55206 | 3387 ft | 236 kts | 275° |
| 2026-04-26 20:10 | 42.68974 | 23.53068 | 3114 ft | 212 kts | 275° |
| 2026-04-26 20:10 | 42.69086 | 23.51168 | 2835 ft | 191 kts | 276° |
| 2026-04-26 20:10 | 42.69188 | 23.49461 | 2578 ft | 175 kts | 275° |
| 2026-04-26 20:11 | 42.69280 | 23.47900 | 2362 ft | 157 kts | 276° |
| 2026-04-26 20:11 | 42.69357 | 23.46500 | 2135 ft | 140 kts | 277° |
| 2026-04-26 20:11 | 42.69441 | 23.45209 | 1991 ft | 139 kts | 277° |
| 2026-04-26 20:12 | 42.69594 | 23.42657 | 1746 ft | 111 kts | 274° |
| 2026-04-26 20:12 | 42.69641 | 23.41842 | 1752 ft | 68 kts | 275° |
| 2026-04-26 20:12 | 42.69672 | 23.41305 | 1746 ft | 43 kts | 274° |
| 2026-04-26 20:12 | 42.69671 | 23.40938 | 1744 ft | 36 kts | 261° |
| 2026-04-26 20:13 | 42.69590 | 23.40672 | 1746 ft | 21 kts | 243° |
| 2026-04-26 20:13 | 42.69530 | 23.40505 | 1743 ft | 18 kts | 215° |
| 2026-04-26 20:13 | 42.69413 | 23.40451 | 1747 ft | 17 kts | 195° |
| 2026-04-26 20:13 | 42.69299 | 23.40404 | 1746 ft | 17 kts | 196° |
| 2026-04-26 20:14 | 42.69191 | 23.40360 | 1749 ft | 16 kts | 196° |
| 2026-04-26 20:14 | 42.69128 | 23.40430 | 1743 ft | 12 kts | 108° |
| 2026-04-26 20:14 | 42.69102 | 23.40536 | 1746 ft | 10 kts | 122° |
| 2026-04-26 20:14 | 42.69046 | 23.40533 | 1750 ft | 8 kts | 197° |
| 2026-04-26 20:15 | 42.69033 | 23.40528 | 1750 ft | 0 kts | 197° |